createdAt,value
2023-04-12T00:00:45.714Z,100.00
2023-04-12T00:03:12.598Z,100.00
2023-04-12T00:05:39.509Z,100.00
2023-04-12T00:08:06.923Z,100.00
2023-04-12T00:10:33.679Z,100.00
2023-04-12T00:13:00.479Z,100.00
2023-04-12T00:15:27.777Z,100.00
2023-04-12T00:17:54.572Z,100.00
2023-04-12T00:20:21.412Z,100.00
2023-04-12T00:22:48.253Z,100.00
2023-04-12T00:25:15.114Z,100.00
2023-04-12T00:27:42.097Z,100.00
2023-04-12T00:30:09.183Z,100.00
2023-04-12T00:32:36.025Z,100.00
2023-04-12T00:35:02.977Z,100.00
2023-04-12T00:37:29.871Z,100.00
2023-04-12T00:39:56.623Z,100.00
2023-04-12T00:42:23.418Z,100.00
2023-04-12T00:44:50.520Z,100.00
2023-04-12T00:47:17.303Z,100.00
2023-04-12T00:49:44.100Z,100.00
2023-04-12T00:52:11.366Z,100.00
2023-04-12T00:54:38.139Z,100.00
2023-04-12T00:57:04.926Z,100.00
2023-04-12T00:59:32.030Z,100.00
2023-04-12T01:01:59.513Z,100.00
2023-04-12T01:04:26.959Z,100.00
2023-04-12T01:07:39.138Z,100.00
2023-04-12T01:10:30.683Z,100.00
2023-04-12T01:13:29.645Z,100.00
2023-04-12T01:16:17.948Z,100.00
2023-04-12T01:18:46.023Z,100.00
2023-04-12T01:21:18.792Z,100.00
2023-04-12T01:24:15.746Z,100.00
2023-04-12T01:26:46.999Z,100.00
2023-04-12T01:29:15.971Z,100.00
2023-04-12T01:32:08.777Z,100.00
2023-04-12T01:34:35.707Z,100.00
2023-04-12T01:37:03.062Z,100.00
2023-04-12T01:39:30.887Z,100.00
2023-04-12T01:41:57.691Z,100.00
2023-04-12T01:44:24.914Z,100.00
2023-04-12T01:46:51.887Z,100.00
2023-04-12T01:49:18.699Z,100.00
2023-04-12T01:51:52.917Z,100.00
2023-04-12T01:54:23.034Z,100.00
2023-04-12T01:56:53.199Z,100.00
2023-04-12T01:59:20.114Z,100.00
2023-04-12T02:01:47.502Z,100.00
2023-04-12T02:04:14.943Z,100.00
2023-04-12T02:06:41.781Z,100.00
2023-04-12T02:09:08.754Z,100.00
2023-04-12T02:11:35.532Z,100.00
2023-04-12T02:14:02.395Z,100.00
2023-04-12T02:16:29.652Z,100.00
2023-04-12T02:18:59.523Z,100.00
2023-04-12T02:21:27.990Z,100.00
2023-04-12T02:23:55.244Z,100.00
2023-04-12T02:26:23.509Z,100.00
2023-04-12T02:28:50.513Z,100.00
2023-04-12T02:31:17.605Z,100.00
2023-04-12T02:33:44.467Z,100.00
2023-04-12T02:36:11.682Z,100.00
2023-04-12T02:38:38.563Z,100.00
2023-04-12T02:41:05.761Z,100.00
2023-04-12T02:43:33.143Z,100.00
2023-04-12T02:46:00.357Z,100.00
2023-04-12T02:48:27.200Z,100.00
2023-04-12T02:50:54.002Z,100.00
2023-04-12T02:53:21.854Z,100.00
2023-04-12T02:55:48.621Z,100.00
2023-04-12T02:58:15.438Z,100.00
2023-04-12T03:00:45.782Z,100.00
2023-04-12T03:03:13.057Z,100.00
2023-04-12T03:05:40.149Z,100.00
2023-04-12T03:08:07.005Z,100.00
2023-04-12T03:10:33.786Z,100.00
2023-04-12T03:13:00.671Z,100.00
2023-04-12T03:15:28.333Z,100.00
2023-04-12T03:17:55.641Z,100.00
2023-04-12T03:20:24.619Z,100.00
2023-04-12T03:22:51.723Z,100.00
2023-04-12T03:25:18.795Z,100.00
2023-04-12T03:27:46.031Z,100.00
2023-04-12T03:30:13.098Z,100.00
2023-04-12T03:32:40.643Z,100.00
2023-04-12T03:35:08.134Z,100.00
2023-04-12T03:37:35.662Z,100.00
2023-04-12T03:40:02.654Z,100.00
2023-04-12T03:42:33.696Z,100.00
2023-04-12T03:45:01.366Z,100.00
2023-04-12T03:47:28.234Z,100.00
2023-04-12T03:50:12.057Z,100.00
2023-04-12T03:52:39.142Z,100.00
2023-04-12T03:55:08.007Z,100.00
2023-04-12T03:57:35.352Z,100.00
2023-04-12T04:00:02.746Z,100.00
2023-04-12T04:02:32.198Z,100.00
2023-04-12T04:04:59.210Z,100.00
2023-04-12T04:07:26.522Z,100.00
2023-04-12T04:09:54.597Z,100.00
2023-04-12T04:12:21.486Z,100.00
2023-04-12T04:14:48.313Z,100.00
2023-04-12T04:17:15.124Z,100.00
2023-04-12T04:19:42.096Z,100.00
2023-04-12T04:22:10.209Z,100.00
2023-04-12T04:24:39.244Z,100.00
2023-04-12T04:27:06.542Z,100.00
2023-04-12T04:29:33.965Z,100.00
2023-04-12T04:32:01.544Z,100.00
2023-04-12T04:34:28.705Z,100.00
2023-04-12T04:36:55.454Z,100.00
2023-04-12T04:39:22.958Z,100.00
2023-04-12T04:41:55.099Z,100.00
2023-04-12T04:44:22.516Z,100.00
2023-04-12T04:46:49.482Z,100.00
2023-04-12T04:49:16.545Z,100.00
2023-04-12T04:51:43.387Z,100.00
2023-04-12T04:54:10.536Z,100.00
2023-04-12T04:56:37.355Z,100.00
2023-04-12T04:59:04.231Z,100.00
2023-04-12T05:01:32.220Z,100.00
2023-04-12T05:03:59.322Z,100.00
2023-04-12T05:06:27.402Z,100.00
2023-04-12T05:08:54.304Z,100.00
2023-04-12T05:11:21.605Z,100.00
2023-04-12T05:13:48.488Z,100.00
2023-04-12T05:16:15.736Z,100.00
2023-04-12T05:18:42.551Z,100.00
2023-04-12T05:21:09.378Z,100.00
2023-04-12T05:23:39.722Z,100.00
2023-04-12T05:26:06.692Z,100.00
2023-04-12T05:28:33.564Z,100.00
2023-04-12T05:31:00.582Z,100.00
2023-04-12T05:33:27.484Z,98.74
2023-04-12T05:35:54.401Z,97.29
2023-04-12T05:38:21.224Z,93.59
2023-04-12T05:40:50.190Z,92.53
2023-04-12T05:43:17.866Z,91.09
2023-04-12T05:45:44.671Z,89.78
2023-04-12T05:48:11.610Z,88.55
2023-04-12T05:50:38.447Z,87.45
2023-04-12T05:53:05.338Z,86.69
2023-04-12T05:55:32.187Z,86.25
2023-04-12T05:57:59.056Z,84.72
2023-04-12T06:00:26.470Z,83.83
2023-04-12T06:02:53.513Z,83.05
2023-04-12T06:05:20.751Z,82.96
2023-04-12T06:07:48.486Z,82.83
2023-04-12T06:10:19.066Z,84.23
2023-04-12T06:12:45.921Z,82.94
2023-04-12T06:15:12.766Z,85.03
2023-04-12T06:17:39.651Z,84.03
2023-04-12T06:20:10.209Z,83.99
2023-04-12T06:22:37.667Z,85.07
2023-04-12T06:25:05.183Z,84.67
2023-04-12T06:27:31.997Z,84.85
2023-04-12T06:29:58.842Z,83.76
2023-04-12T06:32:25.996Z,83.92
2023-04-12T06:34:53.130Z,84.00
2023-04-12T06:37:19.964Z,84.78
2023-04-12T06:39:46.811Z,85.19
2023-04-12T06:42:14.884Z,86.44
2023-04-12T06:44:41.912Z,87.16
2023-04-12T06:47:09.522Z,87.62
2023-04-12T06:49:36.579Z,89.35
2023-04-12T06:52:03.488Z,88.80
2023-04-12T06:54:30.391Z,89.79
2023-04-12T06:56:57.725Z,89.60
2023-04-12T06:59:24.614Z,91.65
2023-04-12T07:01:51.792Z,90.97
2023-04-12T07:04:18.729Z,91.02
2023-04-12T07:06:45.597Z,92.07
2023-04-12T07:09:12.438Z,92.27
2023-04-12T07:11:39.387Z,93.75
2023-04-12T07:14:06.288Z,92.41
2023-04-12T07:16:34.212Z,91.26
2023-04-12T07:19:01.196Z,91.79
2023-04-12T07:21:28.290Z,90.50
2023-04-12T07:23:56.000Z,90.99
2023-04-12T07:26:23.382Z,91.03
2023-04-12T07:28:50.381Z,90.40
2023-04-12T07:31:17.308Z,90.77
2023-04-12T07:33:44.404Z,90.59
2023-04-12T07:36:11.898Z,91.08
2023-04-12T07:38:38.869Z,90.95
2023-04-12T07:41:06.132Z,90.44
2023-04-12T07:43:33.052Z,90.11
2023-04-12T07:46:00.067Z,90.52
2023-04-12T07:48:27.020Z,90.37
2023-04-12T07:50:53.937Z,89.99
2023-04-12T07:53:22.194Z,90.34
2023-04-12T07:55:49.308Z,89.87
2023-04-12T07:58:17.150Z,88.70
2023-04-12T08:00:44.705Z,88.49
2023-04-12T08:03:12.473Z,89.52
2023-04-12T08:05:39.703Z,88.02
2023-04-12T08:08:06.880Z,85.29
2023-04-12T08:10:33.667Z,82.49
2023-04-12T08:13:00.450Z,83.38
2023-04-12T08:15:27.419Z,82.59
2023-04-12T08:17:54.478Z,80.39
2023-04-12T08:20:21.465Z,80.25
2023-04-12T08:22:48.766Z,75.43
2023-04-12T08:25:15.853Z,75.17
2023-04-12T08:27:43.293Z,75.21
2023-04-12T08:30:11.711Z,73.11
2023-04-12T08:32:38.768Z,73.03
2023-04-12T08:35:06.530Z,73.33
2023-04-12T08:37:33.968Z,70.47
2023-04-12T08:40:04.733Z,70.86
2023-04-12T08:42:32.025Z,69.87
2023-04-12T08:44:58.833Z,70.38
2023-04-12T08:47:26.140Z,71.02
2023-04-12T08:49:52.968Z,68.94
2023-04-12T08:52:19.832Z,68.46
2023-04-12T08:54:47.357Z,66.07
2023-04-12T08:57:14.210Z,67.91
2023-04-12T08:59:42.464Z,68.58
2023-04-12T09:02:09.412Z,68.35
2023-04-12T09:04:47.658Z,67.93
2023-04-12T09:07:14.529Z,68.93
2023-04-12T09:09:45.283Z,69.05
2023-04-12T09:12:12.201Z,67.70
2023-04-12T09:14:39.587Z,67.33
2023-04-12T09:17:24.962Z,62.52
2023-04-12T09:19:51.987Z,63.88
2023-04-12T09:22:18.864Z,64.35
2023-04-12T09:24:50.662Z,62.79
2023-04-12T09:27:21.039Z,64.15
2023-04-12T09:29:51.618Z,64.44
2023-04-12T09:32:27.709Z,64.20
2023-04-12T09:34:58.069Z,65.09
2023-04-12T09:37:24.972Z,66.93
2023-04-12T09:40:10.745Z,66.53
2023-04-12T09:42:52.167Z,67.69
2023-04-12T09:45:26.199Z,69.45
2023-04-12T09:47:53.682Z,67.87
2023-04-12T09:50:25.114Z,67.69
2023-04-12T09:52:52.223Z,69.56
2023-04-12T09:55:19.094Z,70.94
2023-04-12T09:57:46.190Z,70.56
2023-04-12T10:00:20.387Z,70.27
2023-04-12T10:02:52.446Z,71.51
2023-04-12T10:05:21.949Z,72.10
2023-04-12T10:07:49.596Z,72.03
2023-04-12T10:10:17.705Z,71.94
2023-04-12T10:12:46.722Z,71.10
2023-04-12T10:15:15.670Z,71.03
2023-04-12T10:17:45.451Z,70.75
2023-04-12T10:20:13.309Z,69.46
2023-04-12T10:22:50.740Z,70.20
2023-04-12T10:25:22.708Z,70.09
2023-04-12T10:27:49.876Z,70.17
2023-04-12T10:30:23.476Z,69.50
2023-04-12T10:33:12.705Z,72.05
2023-04-12T10:36:00.964Z,70.25
2023-04-12T10:38:32.998Z,69.72
2023-04-12T10:41:20.797Z,69.79
2023-04-12T10:43:48.477Z,70.00
2023-04-12T10:46:40.603Z,70.88
2023-04-12T10:49:10.692Z,71.90
2023-04-12T10:51:37.783Z,72.09
2023-04-12T10:54:07.614Z,70.89
2023-04-12T10:56:41.824Z,74.72
2023-04-12T10:59:09.493Z,72.55
2023-04-12T11:01:39.001Z,74.19
2023-04-12T11:04:20.714Z,74.83
2023-04-12T11:06:55.387Z,75.17
2023-04-12T11:09:24.013Z,75.89
2023-04-12T11:11:51.294Z,76.11
2023-04-12T11:14:18.317Z,77.39
2023-04-12T11:17:07.086Z,76.67
2023-04-12T11:19:38.203Z,79.08
2023-04-12T11:22:05.530Z,79.43
2023-04-12T11:24:32.509Z,78.59
2023-04-12T11:26:59.943Z,78.85
2023-04-12T11:29:27.365Z,80.87
2023-04-12T11:31:56.102Z,81.42
2023-04-12T11:34:23.069Z,81.49
2023-04-12T11:36:52.870Z,82.42
2023-04-12T11:39:20.150Z,82.72
2023-04-12T11:41:50.334Z,83.02
2023-04-12T11:44:21.940Z,84.28
2023-04-12T11:46:49.038Z,84.50
2023-04-12T11:49:17.321Z,84.17
2023-04-12T11:51:45.470Z,84.36
2023-04-12T11:54:13.927Z,86.78
2023-04-12T11:56:41.070Z,85.97
2023-04-12T11:59:08.113Z,84.81
2023-04-12T12:01:35.185Z,86.57
2023-04-12T12:04:02.554Z,85.89
2023-04-12T12:06:30.578Z,85.88
2023-04-12T12:08:57.567Z,86.22
2023-04-12T12:11:24.458Z,88.56
2023-04-12T12:13:54.971Z,88.35
2023-04-12T12:16:29.112Z,88.06
2023-04-12T12:18:56.796Z,87.19
2023-04-12T12:21:23.623Z,88.94
2023-04-12T12:23:50.430Z,89.21
2023-04-12T12:26:25.016Z,89.03
2023-04-12T12:28:53.373Z,88.17
2023-04-12T12:34:58.914Z,83.64
2023-04-12T12:37:26.669Z,82.20
2023-04-12T12:40:13.844Z,80.95
2023-04-12T12:42:58.988Z,77.70
2023-04-12T12:45:27.328Z,75.98
2023-04-12T12:47:58.860Z,75.17
2023-04-12T12:50:33.311Z,74.14
2023-04-12T12:53:03.282Z,72.65
2023-04-12T12:55:31.063Z,73.20
2023-04-12T13:00:28.674Z,71.85
2023-04-12T13:02:56.166Z,73.60
2023-04-12T13:05:23.631Z,72.68
2023-04-12T13:07:50.621Z,72.72
2023-04-12T13:10:17.563Z,72.99
2023-04-12T13:12:44.654Z,71.31
2023-04-12T13:15:22.076Z,71.57
2023-04-12T13:17:52.448Z,72.35
2023-04-12T13:20:19.524Z,71.96
2023-04-12T13:22:46.310Z,71.74
2023-04-12T13:25:13.138Z,74.43
2023-04-12T13:27:39.930Z,73.41
2023-04-12T13:30:07.462Z,75.25
2023-04-12T13:32:34.273Z,72.33
2023-04-12T13:35:01.114Z,70.53
2023-04-12T13:37:27.908Z,69.74
2023-04-12T13:39:54.668Z,68.24
2023-04-12T13:42:22.895Z,67.66
2023-04-12T13:44:50.070Z,68.09
2023-04-12T13:47:18.056Z,70.43
2023-04-12T13:49:45.089Z,69.31
2023-04-12T13:52:12.137Z,69.98
2023-04-12T13:54:38.936Z,71.22
2023-04-12T13:57:06.045Z,71.68
2023-04-12T13:59:32.925Z,72.99
2023-04-12T14:02:00.798Z,73.59
2023-04-12T14:04:28.660Z,74.12
2023-04-12T14:06:56.139Z,72.75
2023-04-12T14:09:30.304Z,71.14
2023-04-12T14:11:58.626Z,70.30
2023-04-12T14:14:26.044Z,73.50
2023-04-12T14:16:54.886Z,72.01
2023-04-12T14:19:22.059Z,70.66
2023-04-12T14:21:49.095Z,71.55
2023-04-12T14:24:19.335Z,71.93
2023-04-12T14:26:46.217Z,70.74
2023-04-12T14:29:13.633Z,69.16
2023-04-12T14:31:40.736Z,69.02
2023-04-12T14:34:08.964Z,70.62
2023-04-12T14:36:35.959Z,71.23
2023-04-12T14:39:04.151Z,71.87
2023-04-12T14:41:31.767Z,70.81
2023-04-12T14:44:01.559Z,68.64
2023-04-12T14:46:28.698Z,66.81
2023-04-12T14:48:57.636Z,65.61
2023-04-12T14:51:25.254Z,67.94
2023-04-12T14:53:51.991Z,68.98
2023-04-12T14:56:24.512Z,70.97
2023-04-12T14:58:55.692Z,72.25
2023-04-12T15:01:23.886Z,73.43
2023-04-12T15:03:54.172Z,74.57
2023-04-12T15:06:22.629Z,76.17
2023-04-12T15:08:55.035Z,77.69
2023-04-12T15:11:27.496Z,79.74
2023-04-12T15:13:55.272Z,80.25
2023-04-12T15:16:22.623Z,83.32
2023-04-12T15:18:50.595Z,83.10
2023-04-12T15:21:17.591Z,84.40
2023-04-12T15:23:45.055Z,86.88
2023-04-12T15:26:14.124Z,87.53
2023-04-12T15:28:41.134Z,88.06
2023-04-12T15:31:08.976Z,88.62
2023-04-12T15:33:37.364Z,90.76
2023-04-12T15:36:04.758Z,89.65
2023-04-12T15:38:31.735Z,91.48
2023-04-12T15:40:59.977Z,91.41
2023-04-12T15:43:26.885Z,92.50
2023-04-12T15:45:54.824Z,91.94
2023-04-12T15:48:23.264Z,92.88
2023-04-12T15:50:50.946Z,94.08
2023-04-12T15:53:20.103Z,92.45
2023-04-12T15:55:47.359Z,94.12
2023-04-12T15:58:14.676Z,95.11
2023-04-12T16:00:42.392Z,94.57
2023-04-12T16:03:09.561Z,94.36
2023-04-12T16:05:36.699Z,95.37
2023-04-12T16:08:03.799Z,96.23
2023-04-12T16:10:30.582Z,96.85
2023-04-12T16:12:58.055Z,96.66
2023-04-12T16:15:24.943Z,98.43
2023-04-12T16:17:54.579Z,98.38
2023-04-12T16:20:22.170Z,98.75
2023-04-12T16:22:49.902Z,97.54
2023-04-12T16:25:19.913Z,97.50
2023-04-12T16:27:46.723Z,97.94
2023-04-12T16:30:15.844Z,96.27
2023-04-12T16:32:47.242Z,95.99
2023-04-12T16:35:15.228Z,96.81
2023-04-12T16:37:42.779Z,98.55
2023-04-12T16:40:13.157Z,98.41
2023-04-12T16:42:41.898Z,97.53
2023-04-12T16:45:09.652Z,98.90
2023-04-12T16:47:37.381Z,97.79
2023-04-12T16:50:04.802Z,96.67
2023-04-12T16:52:31.958Z,97.47
2023-04-12T16:54:58.834Z,98.58
2023-04-12T16:57:25.677Z,98.32
2023-04-12T16:59:52.475Z,98.98
2023-04-12T17:02:19.495Z,99.22
2023-04-12T17:04:47.609Z,98.29
2023-04-12T17:07:14.394Z,98.20
2023-04-12T17:09:41.202Z,98.95
2023-04-12T17:12:08.028Z,98.09
2023-04-12T17:14:36.395Z,97.37
2023-04-12T17:17:05.838Z,98.84
2023-04-12T17:19:33.195Z,97.06
2023-04-12T17:22:00.033Z,97.69
2023-04-12T17:24:27.191Z,98.24
2023-04-12T17:26:54.046Z,98.60
2023-04-12T17:29:20.934Z,99.76
2023-04-12T17:31:50.804Z,99.61
2023-04-12T17:34:20.032Z,100.00
2023-04-12T17:36:46.929Z,100.00
2023-04-12T17:39:13.751Z,100.00
2023-04-12T17:41:41.311Z,100.00
2023-04-12T17:44:08.094Z,100.00
2023-04-12T17:46:35.424Z,100.00
2023-04-12T17:49:05.904Z,100.00
2023-04-12T17:51:33.379Z,100.00
2023-04-12T17:54:00.994Z,100.00
2023-04-12T17:56:28.196Z,100.00
2023-04-12T17:58:55.478Z,100.00
2023-04-12T18:01:22.714Z,100.00
2023-04-12T18:03:50.132Z,100.00
2023-04-12T18:06:18.770Z,100.00
2023-04-12T18:08:47.079Z,100.00
2023-04-12T18:11:14.702Z,100.00
2023-04-12T18:13:42.084Z,100.00
2023-04-12T18:16:09.057Z,100.00
2023-04-12T18:18:36.227Z,100.00
2023-04-12T18:21:04.860Z,100.00
2023-04-12T18:23:31.940Z,100.00
2023-04-12T18:25:58.726Z,100.00
2023-04-12T18:28:25.618Z,100.00
2023-04-12T18:30:52.467Z,100.00
2023-04-12T18:33:19.270Z,100.00
2023-04-12T18:35:46.114Z,100.00
2023-04-12T18:38:12.871Z,100.00
2023-04-12T18:40:39.732Z,100.00
2023-04-12T18:43:06.559Z,100.00
2023-04-12T18:45:33.427Z,100.00
2023-04-12T18:48:00.639Z,100.00
2023-04-12T18:50:27.624Z,100.00
2023-04-12T18:52:54.525Z,100.00
2023-04-12T18:55:21.270Z,100.00
2023-04-12T18:57:49.240Z,100.00
2023-04-12T19:00:17.138Z,100.00
2023-04-12T19:02:44.041Z,100.00
2023-04-12T19:05:11.773Z,100.00
2023-04-12T19:07:38.573Z,100.00
2023-04-12T19:10:05.711Z,100.00
2023-04-12T19:12:33.278Z,100.00
2023-04-12T19:15:00.260Z,100.00
2023-04-12T19:17:30.049Z,100.00
2023-04-12T19:19:57.220Z,100.00
2023-04-12T19:22:28.308Z,100.00
2023-04-12T19:24:55.181Z,100.00
2023-04-12T19:27:23.149Z,100.00
2023-04-12T19:29:51.708Z,100.00
2023-04-12T19:32:19.046Z,100.00
2023-04-12T19:34:47.146Z,100.00
2023-04-12T19:37:14.261Z,100.00
2023-04-12T19:39:41.288Z,100.00
2023-04-12T19:42:08.212Z,100.00
2023-04-12T19:44:35.097Z,100.00
2023-04-12T19:47:02.385Z,100.00
2023-04-12T19:49:29.587Z,100.00
2023-04-12T19:51:56.393Z,100.00
2023-04-12T19:54:23.961Z,100.00
2023-04-12T19:56:51.010Z,100.00
2023-04-12T19:59:17.989Z,100.00
2023-04-12T20:01:50.723Z,100.00
2023-04-12T20:04:21.973Z,100.00
2023-04-12T20:06:50.536Z,100.00
2023-04-12T20:09:17.412Z,100.00
2023-04-12T20:11:44.207Z,100.00
2023-04-12T20:14:11.063Z,100.00
2023-04-12T20:16:38.297Z,100.00
2023-04-12T20:19:05.317Z,100.00
2023-04-12T20:21:32.426Z,100.00
2023-04-12T20:23:59.582Z,100.00
2023-04-12T20:26:27.669Z,100.00
2023-04-12T20:28:57.273Z,100.00
2023-04-12T20:31:24.885Z,100.00
2023-04-12T20:33:51.884Z,100.00
2023-04-12T20:36:18.760Z,100.00
2023-04-12T20:38:45.827Z,100.00
2023-04-12T20:41:13.007Z,100.00
2023-04-12T20:43:44.114Z,100.00
2023-04-12T20:46:15.636Z,100.00
2023-04-12T20:48:49.797Z,100.00
2023-04-12T20:51:18.247Z,100.00
2023-04-12T20:53:47.506Z,100.00
2023-04-12T20:56:14.607Z,100.00
2023-04-12T20:58:42.099Z,100.00
2023-04-12T21:01:14.703Z,100.00
2023-04-12T21:03:42.303Z,100.00
2023-04-12T21:06:09.975Z,100.00
2023-04-12T21:08:36.807Z,100.00
2023-04-12T21:11:03.708Z,100.00
2023-04-12T21:13:30.750Z,100.00
2023-04-12T21:15:58.896Z,100.00
2023-04-12T21:18:25.750Z,100.00
2023-04-12T21:20:53.384Z,100.00
2023-04-12T21:23:20.230Z,100.00
2023-04-12T21:25:48.351Z,100.00
2023-04-12T21:28:15.112Z,100.00
2023-04-12T21:30:42.226Z,100.00
2023-04-12T21:33:09.063Z,100.00
2023-04-12T21:35:35.870Z,100.00
2023-04-12T21:38:02.651Z,100.00
2023-04-12T21:40:29.448Z,100.00
2023-04-12T21:42:57.265Z,100.00
2023-04-12T21:45:25.492Z,100.00
2023-04-12T21:47:53.249Z,100.00
2023-04-12T21:50:20.203Z,100.00
2023-04-12T21:52:47.423Z,100.00
2023-04-12T21:55:14.245Z,100.00
2023-04-12T21:57:41.429Z,100.00
2023-04-12T22:00:10.134Z,100.00
2023-04-12T22:02:37.390Z,100.00
2023-04-12T22:05:04.509Z,100.00
2023-04-12T22:07:31.335Z,100.00
2023-04-12T22:09:58.732Z,100.00
2023-04-12T22:12:25.787Z,100.00
2023-04-12T22:14:52.855Z,100.00
2023-04-12T22:17:20.481Z,100.00
2023-04-12T22:19:47.361Z,100.00
2023-04-12T22:22:17.040Z,100.00
2023-04-12T22:24:44.235Z,100.00
2023-04-12T22:27:11.011Z,100.00
2023-04-12T22:29:38.148Z,100.00
2023-04-12T22:32:05.199Z,100.00
2023-04-12T22:34:32.576Z,100.00
2023-04-12T22:36:59.420Z,100.00
2023-04-12T22:39:26.655Z,100.00
2023-04-12T22:41:53.593Z,100.00
2023-04-12T22:44:23.467Z,100.00
2023-04-12T22:46:54.486Z,100.00
2023-04-12T22:49:28.492Z,100.00
2023-04-12T22:51:55.844Z,100.00
2023-04-12T22:54:25.754Z,100.00
2023-04-12T22:56:52.642Z,100.00
2023-04-12T22:59:20.164Z,100.00
2023-04-12T23:01:47.449Z,100.00
2023-04-12T23:04:15.800Z,100.00
2023-04-12T23:06:43.623Z,100.00
2023-04-12T23:09:11.326Z,100.00
2023-04-12T23:11:39.784Z,100.00
2023-04-12T23:14:07.337Z,100.00
2023-04-12T23:16:34.361Z,100.00
2023-04-12T23:19:01.557Z,100.00
2023-04-12T23:21:28.425Z,100.00
2023-04-12T23:23:56.602Z,100.00
2023-04-12T23:26:24.692Z,100.00
2023-04-12T23:28:52.170Z,100.00
2023-04-12T23:31:19.016Z,100.00
2023-04-12T23:33:46.093Z,100.00
2023-04-12T23:36:12.907Z,100.00
2023-04-12T23:38:40.796Z,100.00
2023-04-12T23:41:10.170Z,100.00
2023-04-12T23:43:37.135Z,100.00
2023-04-12T23:46:04.475Z,100.00
2023-04-12T23:48:32.361Z,100.00
2023-04-12T23:51:00.415Z,100.00
2023-04-12T23:53:27.210Z,100.00
2023-04-12T23:55:54.293Z,100.00
2023-04-12T23:58:21.624Z,100.00
